Time;durP1;ratioP1;P1;durP2;ratioP2;P2;SDS_P1;SDS_P2;PMS_P1;PMS_P2;Temp;Humidity;BMP_temperature;BMP_pressure;BME280_temperature;BME280_humidity;BME280_pressure;Samples;Min_cycle;Max_cycle;Signal;HPM_P1;HPM_P2
2021/12/18 00:01:30;;;;;;;239.80;22.90;;;;;;;2.66;100.00;101570.47;4952225;28;20091;-61
2021/12/18 00:03:56;;;;;;;163.02;21.08;;;;;;;2.72;100.00;101566.44;4949467;28;20027;-61
2021/12/18 00:06:22;;;;;;;200.55;21.52;;;;;;;2.73;100.00;101576.91;4947907;28;20252;-61
2021/12/18 00:08:47;;;;;;;194.15;23.50;;;;;;;2.73;100.00;101574.25;4943018;28;20034;-62
2021/12/18 00:11:13;;;;;;;270.73;24.42;;;;;;;2.67;100.00;101574.81;4949389;28;20035;-61
2021/12/18 00:13:38;;;;;;;69.68;21.33;;;;;;;2.77;100.00;101567.75;4954189;28;20130;-61
2021/12/18 00:16:04;;;;;;;102.25;22.60;;;;;;;2.85;100.00;101567.06;4952510;28;20438;-61
2021/12/18 00:18:31;;;;;;;105.57;21.35;;;;;;;2.80;100.00;101569.28;4953086;28;20089;-61
2021/12/18 00:20:58;;;;;;;64.95;19.30;;;;;;;2.84;100.00;101564.53;4944814;28;20047;-61
2021/12/18 00:23:23;;;;;;;46.67;19.13;;;;;;;2.76;100.00;101557.25;4951013;28;20046;-61
2021/12/18 00:25:49;;;;;;;49.28;20.02;;;;;;;2.71;100.00;101555.00;4953206;28;20121;-61
2021/12/18 00:28:14;;;;;;;62.58;18.70;;;;;;;2.74;100.00;101554.75;4952541;28;20042;-61
2021/12/18 00:30:40;;;;;;;56.22;19.65;;;;;;;2.87;100.00;101553.66;4960478;28;20042;-61
2021/12/18 00:33:05;;;;;;;49.72;19.40;;;;;;;2.87;100.00;101554.53;4955329;28;20038;-61
2021/12/18 00:35:33;;;;;;;57.72;17.65;;;;;;;3.01;100.00;101551.47;4954675;28;20403;-61
2021/12/18 00:37:59;;;;;;;68.68;21.10;;;;;;;3.00;100.00;101548.97;4941056;28;20090;-62
2021/12/18 00:40:30;;;;;;;75.97;19.67;;;;;;;3.00;100.00;101548.97;4953181;28;20043;-62
2021/12/18 00:43:13;;;;;;;59.58;19.80;;;;;;;3.03;100.00;101554.81;4950842;28;20031;-61
2021/12/18 00:45:38;;;;;;;65.00;18.70;;;;;;;3.11;100.00;101554.13;4952183;28;20042;-61
2021/12/18 00:48:04;;;;;;;105.50;19.98;;;;;;;3.11;100.00;101555.97;4954007;28;20350;-62
2021/12/18 00:50:30;;;;;;;111.18;19.13;;;;;;;2.96;100.00;101555.50;4953874;28;20062;-61
2021/12/18 00:52:56;;;;;;;114.70;17.95;;;;;;;2.88;100.00;101544.75;4949358;28;20034;-61
2021/12/18 00:55:21;;;;;;;74.88;18.90;;;;;;;2.91;100.00;101552.44;4948557;28;20063;-61
2021/12/18 00:57:48;;;;;;;93.10;19.48;;;;;;;2.93;100.00;101545.19;4948151;28;20035;-61
2021/12/18 01:00:15;;;;;;;142.05;19.23;;;;;;;2.85;100.00;101548.53;4948081;28;20047;-61
2021/12/18 01:02:43;;;;;;;157.27;18.48;;;;;;;2.77;100.00;101549.19;4950294;28;20045;-61
2021/12/18 01:05:09;;;;;;;90.78;18.63;;;;;;;2.81;100.00;101549.75;4945651;28;20161;-61
2021/12/18 01:07:34;;;;;;;128.55;18.83;;;;;;;2.75;100.00;101548.50;4948894;28;20049;-61
2021/12/18 01:10:10;;;;;;;108.50;17.77;;;;;;;2.86;100.00;101544.88;4955283;28;20030;-61
2021/12/18 01:12:42;;;;;;;173.00;18.33;;;;;;;2.80;100.00;101540.97;4950063;28;20055;-61
2021/12/18 01:15:30;;;;;;;214.80;17.90;;;;;;;2.78;100.00;101548.22;4945046;28;20035;-62
2021/12/18 01:23:27;;;;;;;168.75;16.83;;;;;;;2.79;100.00;101549.03;4950485;28;20504;-61
2021/12/18 01:25:52;;;;;;;78.63;16.52;;;;;;;2.79;100.00;101547.22;4950518;28;20043;-61
2021/12/18 01:28:18;;;;;;;67.80;14.93;;;;;;;2.72;100.00;101546.13;4967779;28;20027;-61
2021/12/18 01:30:43;;;;;;;331.08;20.48;;;;;;;2.67;100.00;101548.34;4949627;28;20058;-61
2021/12/18 01:33:09;;;;;;;105.05;16.13;;;;;;;2.63;100.00;101546.91;4952498;28;20079;-61
2021/12/18 01:35:34;;;;;;;154.40;17.25;;;;;;;2.58;100.00;101544.66;4951293;28;20051;-61
2021/12/18 01:38:00;;;;;;;232.93;19.20;;;;;;;2.55;100.00;101544.09;4950983;28;20031;-61
2021/12/18 01:40:25;;;;;;;206.27;17.88;;;;;;;2.62;100.00;101558.50;4946400;28;20300;-61
2021/12/18 01:45:46;;;;;;;147.02;16.02;;;;;;;2.46;100.00;101553.66;4951285;28;20054;-61
2021/12/18 01:53:39;;;;;;;64.75;12.57;;;;;;;2.46;100.00;101556.31;4959830;28;20482;-61
2021/12/18 01:56:05;;;;;;;92.82;13.48;;;;;;;2.41;100.00;101547.09;4949359;28;20035;-61
2021/12/18 01:58:31;;;;;;;99.28;14.45;;;;;;;2.41;100.00;101558.53;4960322;28;20065;-60
2021/12/18 02:00:57;;;;;;;178.65;16.25;;;;;;;2.32;100.00;101552.22;4951542;28;20294;-60
2021/12/18 02:03:22;;;;;;;152.23;14.70;;;;;;;2.30;100.00;101551.50;4951249;28;20394;-61
2021/12/18 02:05:48;;;;;;;95.05;14.23;;;;;;;2.26;100.00;101555.38;4946185;28;20078;-60
2021/12/18 02:08:35;;;;;;;210.15;16.60;;;;;;;2.29;100.00;101557.75;4955898;28;20298;-60
2021/12/18 02:11:12;;;;;;;261.58;18.77;;;;;;;2.20;100.00;101560.34;4944908;28;20042;-61
2021/12/18 02:19:46;;;;;;;198.40;18.45;;;;;;;2.22;100.00;101543.41;4892158;28;20064;-62
2021/12/18 02:22:12;;;;;;;105.75;16.23;;;;;;;2.28;100.00;101537.56;4956869;28;20050;-61
2021/12/18 02:24:37;;;;;;;57.50;16.92;;;;;;;2.33;100.00;101545.13;4952324;28;20627;-62
2021/12/18 02:27:03;;;;;;;66.07;16.80;;;;;;;2.32;100.00;101546.94;4954139;28;20039;-61
2021/12/18 02:29:31;;;;;;;46.13;14.82;;;;;;;2.31;100.00;101541.75;4954038;28;20039;-62
2021/12/18 02:31:56;;;;;;;37.72;15.13;;;;;;;2.38;100.00;101543.75;4960179;28;20039;-61
2021/12/18 02:34:27;;;;;;;35.95;13.73;;;;;;;2.44;100.00;101546.81;4948713;28;20389;-61
2021/12/18 02:36:59;;;;;;;35.30;13.23;;;;;;;2.27;100.00;101535.91;4953141;28;20042;-61
2021/12/18 02:39:41;;;;;;;42.92;13.88;;;;;;;2.34;100.00;101546.78;4952864;28;20413;-61
2021/12/18 02:44:32;;;;;;;52.58;14.48;;;;;;;2.45;100.00;101548.53;4952664;28;20513;-61
2021/12/18 02:46:57;;;;;;;57.78;14.50;;;;;;;2.55;100.00;101546.75;4952764;28;20062;-61
2021/12/18 02:49:25;;;;;;;68.82;14.07;;;;;;;2.46;100.00;101552.84;4954535;28;20054;-61
2021/12/18 02:51:50;;;;;;;138.30;14.48;;;;;;;2.51;100.00;101543.50;4952999;28;20351;-61
2021/12/18 02:54:15;;;;;;;104.47;15.20;;;;;;;2.49;100.00;101540.16;4951738;28;20031;-61
2021/12/18 02:56:41;;;;;;;138.25;13.00;;;;;;;2.33;100.00;101545.94;4960703;28;20046;-61
2021/12/18 02:59:08;;;;;;;129.15;14.23;;;;;;;2.25;100.00;101548.44;4952821;28;20264;-61
2021/12/18 03:01:35;;;;;;;163.88;14.32;;;;;;;2.25;100.00;101542.31;4949983;28;20083;-61
2021/12/18 03:04:03;;;;;;;314.77;18.13;;;;;;;2.21;100.00;101547.00;4955355;28;20030;-61
2021/12/18 03:06:39;;;;;;;77.32;13.55;;;;;;;2.22;100.00;101546.06;4951257;28;20043;-61
2021/12/18 03:25:02;;;;;;;50.13;13.85;;;;;;;2.26;100.00;101550.09;4946170;28;20063;-61
2021/12/18 03:27:28;;;;;;;57.47;13.73;;;;;;;2.25;100.00;101553.72;4949600;28;20063;-61
2021/12/18 03:29:55;;;;;;;51.63;14.63;;;;;;;2.17;100.00;101545.56;4952239;28;20111;-60
2021/12/18 03:32:20;;;;;;;86.35;14.70;;;;;;;2.22;100.00;101538.13;4966864;28;20522;-61
2021/12/18 03:34:45;;;;;;;64.78;13.90;;;;;;;2.30;100.00;101540.94;4945532;28;20054;-61
2021/12/18 03:37:11;;;;;;;338.67;17.10;;;;;;;2.18;100.00;101546.44;4947895;28;20043;-60
2021/12/18 03:39:36;;;;;;;83.68;14.80;;;;;;;2.16;100.00;101541.25;4950842;28;20031;-60
2021/12/18 03:42:06;;;;;;;120.13;15.30;;;;;;;2.40;100.00;101540.13;4953052;28;20491;-59
2021/12/18 03:44:31;;;;;;;206.55;17.00;;;;;;;2.26;100.00;101543.97;4950182;28;20569;-59
2021/12/18 03:46:57;;;;;;;155.88;16.30;;;;;;;2.15;100.00;101542.25;4958263;28;20038;-61
2021/12/18 03:49:22;;;;;;;85.07;16.23;;;;;;;2.28;100.00;101542.88;4948432;28;20350;-60
2021/12/18 03:51:48;;;;;;;60.15;15.73;;;;;;;2.16;100.00;101534.16;4952976;28;20494;-60
2021/12/18 03:54:13;;;;;;;75.13;16.88;;;;;;;2.16;100.00;101533.31;4948079;28;20031;-63
2021/12/18 03:56:38;;;;;;;122.45;16.42;;;;;;;2.21;100.00;101535.59;4949599;28;20129;-60
2021/12/18 03:59:04;;;;;;;123.63;17.08;;;;;;;2.07;100.00;101540.25;4947163;28;20430;-60
2021/12/18 04:01:29;;;;;;;71.95;15.07;;;;;;;2.13;100.00;101541.53;4953279;28;20498;-60
2021/12/18 04:03:55;;;;;;;122.53;17.30;;;;;;;2.04;100.00;101540.50;4949842;28;20035;-61
2021/12/18 04:06:20;;;;;;;72.75;15.32;;;;;;;2.12;100.00;101542.50;4949214;28;20841;-59
2021/12/18 04:08:46;;;;;;;54.58;14.90;;;;;;;2.34;100.00;101539.69;4953511;28;20030;-60
2021/12/18 04:11:11;;;;;;;56.05;15.15;;;;;;;2.36;100.00;101539.56;4952356;28;20066;-60
2021/12/18 04:13:37;;;;;;;60.33;14.20;;;;;;;2.50;100.00;101541.03;4953945;28;20536;-60
2021/12/18 04:16:02;;;;;;;71.93;17.48;;;;;;;2.41;100.00;101537.34;4945572;28;20062;-60
2021/12/18 04:18:28;;;;;;;114.50;18.42;;;;;;;2.43;100.00;101535.41;4948662;28;20556;-60
2021/12/18 04:20:53;;;;;;;60.45;17.58;;;;;;;2.31;100.00;101537.28;4949248;28;20051;-60
2021/12/18 04:23:19;;;;;;;107.05;17.08;;;;;;;2.52;100.00;101528.47;4948719;28;20422;-61
2021/12/18 04:25:44;;;;;;;62.25;16.75;;;;;;;2.44;100.00;101536.25;4950565;28;20445;-60
2021/12/18 04:28:10;;;;;;;62.00;15.63;;;;;;;2.45;100.00;101532.63;4957522;28;20065;-61
2021/12/18 04:30:35;;;;;;;260.25;19.90;;;;;;;2.21;100.00;101531.13;4953186;28;20050;-60
2021/12/18 04:33:00;;;;;;;53.92;15.98;;;;;;;2.34;100.00;101539.69;4948672;28;20038;-60
2021/12/18 04:35:27;;;;;;;61.63;17.50;;;;;;;2.34;100.00;101531.72;4951148;28;20062;-60
2021/12/18 04:37:53;;;;;;;64.95;17.42;;;;;;;2.39;100.00;101539.28;4945574;28;20684;-60
2021/12/18 04:40:18;;;;;;;59.83;17.90;;;;;;;2.43;100.00;101539.88;4946101;28;20035;-60
2021/12/18 04:42:44;;;;;;;66.80;18.20;;;;;;;2.28;100.00;101537.56;4953466;28;20082;-61
2021/12/18 04:45:09;;;;;;;61.95;17.98;;;;;;;2.37;100.00;101536.78;4953968;28;20493;-60
2021/12/18 04:47:35;;;;;;;59.70;15.65;;;;;;;2.25;100.00;101537.00;4948241;28;20489;-60
2021/12/18 04:50:00;;;;;;;69.75;16.58;;;;;;;2.26;100.00;101531.56;4953971;28;20489;-60
2021/12/18 04:52:25;;;;;;;133.20;17.85;;;;;;;2.20;100.00;101534.75;4969586;28;20522;-62
2021/12/18 04:54:51;;;;;;;65.38;16.85;;;;;;;2.26;100.00;101534.22;4948786;28;20027;-61
2021/12/18 04:57:17;;;;;;;74.18;16.65;;;;;;;2.36;100.00;101534.25;4949395;28;20122;-60
2021/12/18 04:59:44;;;;;;;86.57;16.75;;;;;;;2.46;100.00;101539.59;4952163;28;20038;-60
2021/12/18 05:02:11;;;;;;;88.57;17.90;;;;;;;2.36;100.00;101544.84;4957540;28;20062;-60
2021/12/18 05:04:37;;;;;;;182.65;19.58;;;;;;;2.34;100.00;101547.63;4948451;28;20031;-60
2021/12/18 05:07:02;;;;;;;69.47;16.65;;;;;;;2.41;100.00;101552.41;4946582;28;20146;-60
2021/12/18 05:09:28;;;;;;;180.20;17.65;;;;;;;2.44;100.00;101549.47;4951792;28;20062;-60
2021/12/18 05:11:55;;;;;;;91.38;18.75;;;;;;;2.54;100.00;101548.53;4953549;28;20042;-60
2021/12/18 05:14:21;;;;;;;117.45;17.42;;;;;;;2.41;100.00;101547.94;4950200;28;20020;-60
2021/12/18 05:16:47;;;;;;;112.43;17.70;;;;;;;2.36;100.00;101544.84;4947982;28;20141;-60
2021/12/18 05:19:13;;;;;;;80.60;17.10;;;;;;;2.35;100.00;101549.31;4951346;28;20857;-60
2021/12/18 05:21:38;;;;;;;143.52;15.77;;;;;;;2.30;100.00;101551.50;4949367;28;20042;-60
2021/12/18 05:24:04;;;;;;;94.60;16.63;;;;;;;2.38;100.00;101554.34;4948604;28;20082;-61
2021/12/18 05:26:30;;;;;;;123.03;16.92;;;;;;;2.37;100.00;101551.81;4948671;28;20489;-60
2021/12/18 05:28:55;;;;;;;125.15;15.02;;;;;;;2.40;100.00;101550.69;4953519;28;20050;-60
2021/12/18 05:31:21;;;;;;;55.05;15.55;;;;;;;2.38;100.00;101549.03;4945612;28;20047;-60
2021/12/18 05:33:47;;;;;;;48.75;13.32;;;;;;;2.33;100.00;101551.25;4949749;28;20223;-60
2021/12/18 05:36:31;;;;;;;39.03;12.25;;;;;;;2.33;100.00;101548.59;4949431;28;20835;-60
2021/12/18 05:39:00;;;;;;;47.13;13.60;;;;;;;2.48;100.00;101550.91;4956075;28;20093;-60
2021/12/18 05:41:25;;;;;;;41.95;12.82;;;;;;;2.63;100.00;101562.81;4948708;28;20425;-60
2021/12/18 05:43:50;;;;;;;33.00;11.68;;;;;;;2.43;100.00;101546.00;4955705;28;20031;-60
2021/12/18 05:46:16;;;;;;;38.33;11.75;;;;;;;2.37;100.00;101547.38;4943222;28;20043;-60
2021/12/18 05:48:41;;;;;;;40.83;11.65;;;;;;;2.59;100.00;101548.16;4949115;28;20067;-60
2021/12/18 05:51:06;;;;;;;37.92;12.15;;;;;;;2.49;100.00;101549.91;4955665;28;20051;-61
2021/12/18 05:53:32;;;;;;;43.50;13.30;;;;;;;2.51;100.00;101542.69;4941994;28;20038;-61
2021/12/18 05:55:58;;;;;;;36.25;11.52;;;;;;;2.47;100.00;101549.19;4948550;28;20651;-60
2021/12/18 05:58:23;;;;;;;42.28;11.73;;;;;;;2.47;100.00;101547.41;4945465;28;20030;-60
2021/12/18 06:00:48;;;;;;;38.33;12.20;;;;;;;2.48;100.00;101548.25;4958134;28;20482;-60
2021/12/18 06:03:14;;;;;;;28.98;11.88;;;;;;;2.46;100.00;101550.19;4949274;28;20031;-60
2021/12/18 06:05:39;;;;;;;37.95;11.75;;;;;;;2.54;100.00;101551.19;4950739;28;20054;-60
2021/12/18 06:08:10;;;;;;;36.72;13.30;;;;;;;2.42;100.00;101554.06;4952585;28;20059;-61
2021/12/18 06:10:37;;;;;;;29.92;11.48;;;;;;;2.38;100.00;101549.03;4949266;28;20982;-60
2021/12/18 06:13:03;;;;;;;26.55;11.55;;;;;;;2.27;100.00;101541.19;4948457;28;20056;-60
2021/12/18 06:15:29;;;;;;;27.90;10.43;;;;;;;2.11;100.00;101538.19;4954103;28;20494;-61
2021/12/18 06:17:55;;;;;;;33.55;10.18;;;;;;;2.02;100.00;101542.47;4951511;28;20110;-61
2021/12/18 06:20:21;;;;;;;27.60;10.32;;;;;;;1.88;100.00;101529.56;4968352;28;20185;-61
2021/12/18 06:22:46;;;;;;;32.22;11.18;;;;;;;1.81;100.00;101534.50;4947559;28;22183;-60
2021/12/18 06:25:12;;;;;;;39.17;12.95;;;;;;;1.83;100.00;101531.75;4952688;28;20078;-61
2021/12/18 06:27:37;;;;;;;37.13;12.50;;;;;;;1.81;100.00;101544.25;4950008;28;20448;-60
2021/12/18 06:30:03;;;;;;;41.83;12.70;;;;;;;1.84;100.00;101542.19;4950734;28;20545;-61
2021/12/18 06:32:29;;;;;;;51.40;13.35;;;;;;;2.21;100.00;101535.59;4951439;28;20488;-60
2021/12/18 06:34:55;;;;;;;41.10;13.80;;;;;;;2.37;100.00;101539.44;4960415;28;20513;-61
2021/12/18 06:37:20;;;;;;;20.63;8.80;;;;;;;1.92;100.00;101536.25;4953197;28;20113;-60
2021/12/18 06:39:45;;;;;;;27.20;9.40;;;;;;;1.98;100.00;101545.50;4956636;28;20038;-61
2021/12/18 06:42:11;;;;;;;24.17;9.15;;;;;;;2.06;100.00;101540.38;4957059;28;20359;-62
2021/12/18 06:44:36;;;;;;;31.52;9.88;;;;;;;2.06;100.00;101543.03;4953760;28;20037;-60
2021/12/18 06:47:02;;;;;;;28.30;10.30;;;;;;;2.16;100.00;101549.19;4956262;28;20065;-60
2021/12/18 06:49:27;;;;;;;31.48;11.45;;;;;;;2.19;100.00;101548.94;4954922;28;20043;-61
2021/12/18 06:51:53;;;;;;;28.50;11.00;;;;;;;2.22;100.00;101548.69;4955119;28;20075;-60
2021/12/18 06:54:18;;;;;;;26.15;10.65;;;;;;;2.47;100.00;101551.84;4952849;28;20027;-61
2021/12/18 06:56:43;;;;;;;28.85;11.45;;;;;;;2.26;100.00;101547.44;4949252;28;20042;-61
2021/12/18 06:59:09;;;;;;;31.25;11.88;;;;;;;2.33;100.00;101551.25;4950241;28;20031;-60
2021/12/18 07:01:35;;;;;;;23.67;9.38;;;;;;;2.41;100.00;101557.69;4950066;28;20039;-61
2021/12/18 07:04:00;;;;;;;31.00;11.07;;;;;;;2.57;100.00;101553.59;4949683;28;20030;-61
2021/12/18 07:06:26;;;;;;;24.65;11.05;;;;;;;2.29;100.00;101555.13;4952568;28;20851;-61
2021/12/18 07:08:51;;;;;;;27.70;10.27;;;;;;;2.38;100.00;101554.34;4942278;28;20031;-60
2021/12/18 07:11:17;;;;;;;26.75;11.00;;;;;;;2.41;100.00;101555.03;4948852;28;20050;-62
2021/12/18 07:13:42;;;;;;;25.58;10.50;;;;;;;2.35;100.00;101549.31;4951763;28;20062;-62
2021/12/18 07:16:07;;;;;;;28.15;9.85;;;;;;;2.47;100.00;101557.16;4945845;28;20043;-60
2021/12/18 07:18:33;;;;;;;25.17;10.32;;;;;;;2.29;100.00;101549.81;4952617;28;20105;-60
2021/12/18 07:20:58;;;;;;;28.73;9.98;;;;;;;2.14;100.00;101545.84;4952383;28;20067;-61
2021/12/18 07:23:24;;;;;;;32.58;10.65;;;;;;;2.25;100.00;101547.59;4952543;28;20537;-60
2021/12/18 07:25:50;;;;;;;31.33;12.63;;;;;;;2.09;100.00;101559.47;4943548;28;20043;-61
2021/12/18 07:28:15;;;;;;;149.50;55.95;;;;;;;2.23;100.00;101553.00;4951183;28;20478;-61
2021/12/18 07:30:40;;;;;;;49.88;19.88;;;;;;;2.19;100.00;101558.69;4948607;28;20127;-62
2021/12/18 07:33:11;;;;;;;28.15;12.30;;;;;;;2.18;100.00;101557.84;4952954;28;20026;-61
2021/12/18 07:35:39;;;;;;;24.73;13.35;;;;;;;2.13;100.00;101565.34;4945681;28;20055;-61
2021/12/18 07:38:05;;;;;;;23.05;9.85;;;;;;;2.06;100.00;101565.03;4948474;28;20153;-62
2021/12/18 07:40:31;;;;;;;21.15;9.75;;;;;;;1.91;100.00;101567.16;4949648;28;20507;-62
2021/12/18 07:42:56;;;;;;;21.77;9.15;;;;;;;1.83;100.00;101566.97;4953460;28;20708;-62
2021/12/18 07:45:22;;;;;;;22.70;9.20;;;;;;;1.78;100.00;101561.22;4951661;28;20047;-60
2021/12/18 07:47:47;;;;;;;22.80;9.98;;;;;;;1.88;100.00;101566.56;4944969;28;20272;-61
2021/12/18 07:50:18;;;;;;;22.77;9.20;;;;;;;1.73;100.00;101563.41;4948424;28;20050;-62
2021/12/18 07:52:47;;;;;;;21.48;9.65;;;;;;;1.65;100.00;101565.84;4949448;28;20815;-61
2021/12/18 07:55:13;;;;;;;26.92;11.35;;;;;;;1.81;100.00;101563.59;4950643;28;20566;-62
2021/12/18 07:57:38;;;;;;;42.00;13.07;;;;;;;1.74;100.00;101562.44;4948989;28;20070;-60
2021/12/18 08:00:05;;;;;;;30.48;10.65;;;;;;;1.84;100.00;101570.44;4951849;28;20065;-61
2021/12/18 08:02:31;;;;;;;31.38;11.07;;;;;;;1.81;100.00;101570.69;4963713;28;20035;-61
2021/12/18 08:04:56;;;;;;;30.48;10.52;;;;;;;1.75;100.00;101572.06;4960774;28;20026;-61
2021/12/18 08:07:21;;;;;;;29.33;11.25;;;;;;;1.78;100.00;101566.50;4950482;28;20477;-61
2021/12/18 08:09:47;;;;;;;26.92;10.73;;;;;;;1.81;100.00;101563.59;4953570;28;20478;-61
2021/12/18 08:12:12;;;;;;;28.63;10.02;;;;;;;1.87;100.00;101567.53;4950959;28;20035;-60
2021/12/18 08:14:38;;;;;;;29.83;10.85;;;;;;;1.80;100.00;101563.72;4948973;28;20026;-62
2021/12/18 08:17:03;;;;;;;32.40;11.90;;;;;;;1.87;100.00;101568.41;4951367;28;20383;-61
2021/12/18 08:19:30;;;;;;;30.20;11.88;;;;;;;1.79;100.00;101573.47;4950677;28;20035;-61
2021/12/18 08:21:55;;;;;;;29.58;12.35;;;;;;;1.65;100.00;101566.69;4949023;28;20232;-61
2021/12/18 08:24:21;;;;;;;41.45;11.40;;;;;;;1.52;100.00;101573.94;4945082;28;20039;-60
2021/12/18 08:26:46;;;;;;;57.78;13.23;;;;;;;1.54;100.00;101569.38;4951091;28;20090;-61
2021/12/18 08:29:11;;;;;;;68.65;15.82;;;;;;;1.40;100.00;101572.28;4951260;28;20050;-61
2021/12/18 08:31:37;;;;;;;76.15;14.10;;;;;;;1.45;100.00;101576.25;4953675;28;20393;-60
2021/12/18 08:34:02;;;;;;;58.00;17.02;;;;;;;1.49;100.00;101576.84;4954441;28;20030;-60
2021/12/18 08:36:28;;;;;;;200.25;18.83;;;;;;;1.41;100.00;101574.81;4950160;28;20047;-61
2021/12/18 08:38:53;;;;;;;124.28;33.65;;;;;;;1.54;100.00;101563.25;4953071;28;20038;-61
2021/12/18 08:41:20;;;;;;;273.58;79.85;;;;;;;1.63;100.00;101567.78;4950427;28;20051;-61
2021/12/18 08:43:46;;;;;;;83.75;20.00;;;;;;;1.62;100.00;101564.31;4954046;28;20037;-61
2021/12/18 08:46:12;;;;;;;212.00;32.92;;;;;;;1.71;100.00;101571.47;4946577;28;20039;-61
2021/12/18 08:48:37;;;;;;;286.00;29.02;;;;;;;1.58;100.00;101569.97;4952756;28;20041;-60
2021/12/18 08:51:03;;;;;;;201.50;22.05;;;;;;;1.58;100.00;101577.91;4948433;28;20050;-61
2021/12/18 08:53:28;;;;;;;315.77;20.40;;;;;;;1.43;100.00;101578.19;4948490;28;20031;-61
2021/12/18 08:55:54;;;;;;;151.48;32.38;;;;;;;1.55;100.00;101570.19;4954558;28;20051;-61
2021/12/18 08:58:19;;;;;;;149.98;29.30;;;;;;;1.75;100.00;101576.47;4950064;28;20043;-61
2021/12/18 09:00:44;;;;;;;140.43;15.07;;;;;;;1.53;100.00;101578.28;4955811;28;20185;-61
2021/12/18 09:03:10;;;;;;;120.70;19.13;;;;;;;1.48;100.00;101573.38;4956441;28;20465;-61
2021/12/18 09:05:35;;;;;;;167.82;16.15;;;;;;;1.40;100.00;101570.50;4952189;28;20520;-61
2021/12/18 09:08:01;;;;;;;148.90;20.60;;;;;;;1.36;100.00;101577.00;4948587;28;20046;-61
2021/12/18 09:10:27;;;;;;;255.88;33.05;;;;;;;1.22;100.00;101577.28;4945191;28;20051;-60
2021/12/18 09:12:56;;;;;;;123.63;36.63;;;;;;;1.39;100.00;101576.75;4951725;28;20042;-61
2021/12/18 09:15:22;;;;;;;109.53;33.22;;;;;;;1.48;100.00;101578.66;4946700;28;20125;-62
2021/12/18 09:17:47;;;;;;;71.45;21.58;;;;;;;1.56;100.00;101582.47;4949435;28;20051;-62
2021/12/18 09:20:13;;;;;;;122.50;25.70;;;;;;;1.55;100.00;101580.78;4940990;28;20864;-62
2021/12/18 09:22:38;;;;;;;46.83;17.70;;;;;;;1.41;100.00;101576.63;4950287;28;20035;-62
2021/12/18 09:25:05;;;;;;;38.55;14.75;;;;;;;1.40;100.00;101578.44;4949520;28;20704;-61
2021/12/18 09:27:32;;;;;;;40.50;13.38;;;;;;;1.33;100.00;101587.00;4949783;28;20568;-61
2021/12/18 09:29:57;;;;;;;54.75;20.90;;;;;;;1.46;100.00;101585.03;4944415;28;20170;-61
2021/12/18 09:32:22;;;;;;;49.08;17.75;;;;;;;1.53;100.00;101588.00;4943925;28;20043;-61
2021/12/18 09:34:48;;;;;;;49.10;18.67;;;;;;;1.55;100.00;101581.63;4944808;28;20090;-61
2021/12/18 09:37:13;;;;;;;57.00;18.90;;;;;;;1.62;100.00;101584.59;4941307;28;20047;-62
2021/12/18 09:39:39;;;;;;;40.15;18.05;;;;;;;1.61;100.00;101573.19;4951268;28;20364;-62
2021/12/18 09:42:04;;;;;;;48.83;17.08;;;;;;;1.77;100.00;101575.38;4944570;28;20039;-61
2021/12/18 09:44:32;;;;;;;40.78;16.02;;;;;;;1.68;100.00;101570.88;4949957;28;20058;-60
2021/12/18 09:46:58;;;;;;;46.00;18.90;;;;;;;1.76;100.00;101579.00;4954890;28;20039;-62
2021/12/18 09:49:23;;;;;;;40.13;16.95;;;;;;;1.71;100.00;101571.47;4951924;28;20023;-61
2021/12/18 09:51:48;;;;;;;36.85;14.75;;;;;;;1.76;100.00;101567.59;4950408;28;20038;-61
2021/12/18 09:54:14;;;;;;;31.83;12.38;;;;;;;1.68;100.00;101561.16;4952346;28;20023;-61
2021/12/18 09:56:39;;;;;;;27.25;12.23;;;;;;;1.72;100.00;101567.00;4945066;28;20503;-61
2021/12/18 09:59:05;;;;;;;34.03;13.13;;;;;;;1.72;100.00;101567.00;4952463;28;20561;-61
2021/12/18 10:01:31;;;;;;;31.45;14.55;;;;;;;1.62;100.00;101568.72;4950215;28;20039;-60
2021/12/18 10:03:58;;;;;;;31.70;14.32;;;;;;;1.67;100.00;101569.19;4951431;28;20019;-61
2021/12/18 10:06:35;;;;;;;25.20;11.57;;;;;;;1.70;100.00;101569.78;4959266;28;20488;-61
2021/12/18 10:09:05;;;;;;;22.38;10.90;;;;;;;1.77;100.00;101570.09;4956845;28;20524;-61
2021/12/18 10:11:31;;;;;;;26.98;11.20;;;;;;;1.77;100.00;101562.16;4951201;28;20039;-61
2021/12/18 10:13:58;;;;;;;20.48;11.02;;;;;;;1.80;100.00;101566.34;4953079;28;20061;-61
2021/12/18 10:16:26;;;;;;;27.50;12.35;;;;;;;1.71;100.00;101567.97;4954587;28;20061;-61
2021/12/18 10:18:52;;;;;;;21.05;9.60;;;;;;;1.58;100.00;101559.41;4948116;28;20381;-61
2021/12/18 10:21:20;;;;;;;26.38;12.30;;;;;;;1.80;100.00;101559.28;4959678;28;20042;-62
2021/12/18 10:23:47;;;;;;;26.65;11.63;;;;;;;2.01;100.00;101555.81;4960511;28;20031;-61
2021/12/18 10:26:38;;;;;;;26.48;10.88;;;;;;;1.87;100.00;101551.66;4955665;28;20414;-61
2021/12/18 10:29:34;;;;;;;23.42;11.15;;;;;;;1.91;100.00;101545.16;4948328;28;20182;-61
2021/12/18 10:32:13;;;;;;;20.52;9.18;;;;;;;1.76;100.00;101543.81;4952454;28;20078;-62
2021/12/18 10:34:40;;;;;;;19.85;9.80;;;;;;;1.87;100.00;101536.66;4953400;28;20433;-61
2021/12/18 10:37:19;;;;;;;27.67;11.40;;;;;;;1.93;100.00;101533.47;4956187;28;20506;-61
2021/12/18 10:39:50;;;;;;;24.63;11.05;;;;;;;2.10;100.00;101529.41;4948686;28;20051;-61
2021/12/18 10:42:28;;;;;;;26.15;12.45;;;;;;;2.16;100.00;101538.63;4950854;28;20102;-62
2021/12/18 10:44:57;;;;;;;24.30;10.82;;;;;;;2.12;100.00;101524.81;4949976;28;20045;-62
2021/12/18 10:47:22;;;;;;;19.67;9.70;;;;;;;1.93;100.00;101522.06;4954836;28;20398;-61
2021/12/18 10:49:48;;;;;;;22.35;9.90;;;;;;;2.11;100.00;101536.38;4958309;28;20460;-61
2021/12/18 10:52:13;;;;;;;21.48;10.13;;;;;;;2.07;100.00;101531.47;4949730;28;20058;-61
2021/12/18 10:54:39;;;;;;;20.25;9.63;;;;;;;2.15;100.00;101534.31;4952661;28;20030;-62
2021/12/18 10:57:04;;;;;;;19.50;9.85;;;;;;;2.10;100.00;101524.13;4954226;28;20036;-61
2021/12/18 10:59:34;;;;;;;20.95;10.27;;;;;;;2.26;100.00;101523.63;4936819;28;20080;-61
2021/12/18 11:02:02;;;;;;;17.90;8.88;;;;;;;2.23;100.00;101518.59;4958859;28;20073;-62
2021/12/18 11:04:35;;;;;;;19.17;8.57;;;;;;;2.27;100.00;101516.53;4958394;28;20039;-62
2021/12/18 11:07:21;;;;;;;19.55;8.70;;;;;;;2.24;100.00;101520.28;4953981;28;20050;-61
2021/12/18 11:10:11;;;;;;;19.80;10.25;;;;;;;2.31;100.00;101510.84;4951920;28;20105;-61
2021/12/18 11:15:19;;;;;;;20.35;9.48;;;;;;;2.07;100.00;101505.00;4950038;28;20042;-61
2021/12/18 11:17:45;;;;;;;20.40;9.35;;;;;;;2.11;100.00;101490.56;4946689;28;20051;-63
2021/12/18 11:20:11;;;;;;;23.42;10.70;;;;;;;2.16;100.00;101497.13;4955269;28;20035;-61
2021/12/18 11:22:36;;;;;;;25.02;11.07;;;;;;;2.24;100.00;101499.09;4955051;28;20049;-61
2021/12/18 11:25:04;;;;;;;26.02;11.13;;;;;;;2.29;100.00;101491.59;4955592;28;20035;-61
2021/12/18 11:27:32;;;;;;;31.33;12.10;;;;;;;2.30;100.00;101485.34;4956616;28;20031;-61
2021/12/18 11:30:00;;;;;;;23.55;10.35;;;;;;;2.34;100.00;101489.38;4954226;28;20039;-61
2021/12/18 11:32:27;;;;;;;24.90;11.95;;;;;;;2.29;100.00;101488.94;4954021;28;20069;-61
2021/12/18 11:34:54;;;;;;;24.98;11.80;;;;;;;2.31;100.00;101487.00;4953166;28;20077;-61
2021/12/18 11:37:20;;;;;;;26.40;11.65;;;;;;;2.33;100.00;101482.44;4955381;28;20648;-61
2021/12/18 11:39:47;;;;;;;30.90;12.93;;;;;;;2.28;100.00;101471.41;4948140;28;20114;-60
2021/12/18 11:42:13;;;;;;;28.60;12.55;;;;;;;2.34;100.00;101476.16;4937124;28;20050;-61
2021/12/18 11:44:52;;;;;;;26.95;11.45;;;;;;;2.36;100.00;101468.94;4960067;28;20449;-61
2021/12/18 11:47:36;;;;;;;29.13;13.57;;;;;;;2.45;100.00;101463.81;4947278;28;20469;-60